sensor_id;sensor_type;location;lat;lon;timestamp;pressure;altitude;pressure_sealevel;temperature;humidity
59435;BME280;45241;49.768;8.636;2023-08-21T10:37:28;100697.56;;;31.60;72.62
59435;BME280;45241;49.768;8.636;2023-08-21T10:39:55;100696.88;;;31.54;73.46
59435;BME280;45241;49.768;8.636;2023-08-21T10:42:37;100682.69;;;31.47;71.63
59435;BME280;45241;49.768;8.636;2023-08-21T10:45:10;100691.31;;;31.94;77.23
59435;BME280;45241;49.768;8.636;2023-08-21T10:47:36;100690.69;;;32.14;71.25
59435;BME280;45241;49.768;8.636;2023-08-21T10:50:04;100685.47;;;32.21;70.05
59435;BME280;45241;49.768;8.636;2023-08-21T10:54:13;100692.63;;;32.05;67.75
59435;BME280;45241;49.768;8.636;2023-08-21T10:56:39;100691.34;;;32.11;63.79
59435;BME280;45241;49.768;8.636;2023-08-21T10:59:04;100689.72;;;32.10;64.92
59435;BME280;45241;49.768;8.636;2023-08-21T11:01:45;100683.47;;;31.87;61.85
59435;BME280;45241;49.768;8.636;2023-08-21T11:04:13;100682.06;;;32.25;61.78
59435;BME280;45241;49.768;8.636;2023-08-21T11:06:39;100680.78;;;32.31;64.03
59435;BME280;45241;49.768;8.636;2023-08-21T11:09:05;100676.50;;;32.16;63.26
59435;BME280;45241;49.768;8.636;2023-08-21T11:11:31;100682.75;;;32.30;63.32
59435;BME280;45241;49.768;8.636;2023-08-21T11:13:56;100687.31;;;32.43;61.78
59435;BME280;45241;49.768;8.636;2023-08-21T11:16:21;100680.44;;;32.32;57.46
59435;BME280;45241;49.768;8.636;2023-08-21T11:18:47;100675.03;;;32.10;62.90
59435;BME280;45241;49.768;8.636;2023-08-21T11:21:12;100670.28;;;32.19;61.43
59435;BME280;45241;49.768;8.636;2023-08-21T11:23:39;100677.69;;;32.49;60.24
59435;BME280;45241;49.768;8.636;2023-08-21T11:26:05;100677.97;;;32.83;65.91
59435;BME280;45241;49.768;8.636;2023-08-21T11:28:32;100676.63;;;32.97;61.59
59435;BME280;45241;49.768;8.636;2023-08-21T11:30:58;100679.13;;;32.90;61.59
59435;BME280;45241;49.768;8.636;2023-08-21T11:33:25;100675.69;;;32.59;60.00
59435;BME280;45241;49.768;8.636;2023-08-21T11:35:51;100679.28;;;32.76;61.56
59435;BME280;45241;49.768;8.636;2023-08-21T11:38:20;100685.78;;;32.98;59.28
59435;BME280;45241;49.768;8.636;2023-08-21T11:43:22;100674.78;;;33.19;57.77
59435;BME280;45241;49.768;8.636;2023-08-21T11:45:47;100678.19;;;33.24;56.77
59435;BME280;45241;49.768;8.636;2023-08-21T11:48:13;100666.59;;;33.22;58.96
59435;BME280;45241;49.768;8.636;2023-08-21T11:50:39;100667.41;;;33.23;54.15
59435;BME280;45241;49.768;8.636;2023-08-21T11:53:04;100671.78;;;33.41;55.28
59435;BME280;45241;49.768;8.636;2023-08-21T12:40:10;100646.78;;;34.75;48.65
59435;BME280;45241;49.768;8.636;2023-08-21T12:42:35;100647.50;;;34.84;49.59
59435;BME280;45241;49.768;8.636;2023-08-21T12:45:01;100640.53;;;34.90;47.49
59435;BME280;45241;49.768;8.636;2023-08-21T12:47:26;100645.69;;;34.67;46.55
59435;BME280;45241;49.768;8.636;2023-08-21T12:49:51;100638.34;;;34.83;47.51
59435;BME280;45241;49.768;8.636;2023-08-21T12:52:17;100630.56;;;34.89;46.63
59435;BME280;45241;49.768;8.636;2023-08-21T12:54:42;100637.13;;;35.18;48.59
59435;BME280;45241;49.768;8.636;2023-08-21T12:57:08;100641.38;;;35.48;49.12
59435;BME280;45241;49.768;8.636;2023-08-21T12:59:34;100630.66;;;35.62;50.07
59435;BME280;45241;49.768;8.636;2023-08-21T13:02:00;100627.66;;;35.55;47.45
59435;BME280;45241;49.768;8.636;2023-08-21T13:04:25;100630.06;;;35.57;46.58
59435;BME280;45241;49.768;8.636;2023-08-21T13:06:51;100623.00;;;35.35;45.73
59435;BME280;45241;49.768;8.636;2023-08-21T13:09:16;100622.06;;;35.55;49.78
59435;BME280;45241;49.768;8.636;2023-08-21T13:13:04;100625.06;;;36.27;46.32
59435;BME280;45241;49.768;8.636;2023-08-21T13:15:29;100621.56;;;36.02;44.40
59435;BME280;45241;49.768;8.636;2023-08-21T14:40:11;100564.31;;;40.88;36.90
59435;BME280;45241;49.768;8.636;2023-08-21T14:42:37;100558.69;;;40.48;36.80
59435;BME280;45241;49.768;8.636;2023-08-21T14:45:03;100561.66;;;42.84;37.79
59435;BME280;45241;49.768;8.636;2023-08-21T14:47:28;100552.75;;;43.28;37.79
59435;BME280;45241;49.768;8.636;2023-08-21T14:49:54;100553.19;;;43.05;36.77
59435;BME280;45241;49.768;8.636;2023-08-21T14:52:20;100558.03;;;42.83;36.38
59435;BME280;45241;49.768;8.636;2023-08-21T14:54:45;100555.91;;;43.59;34.93
59435;BME280;45241;49.768;8.636;2023-08-21T14:57:10;100554.34;;;43.47;36.93
59435;BME280;45241;49.768;8.636;2023-08-21T14:59:36;100554.56;;;43.99;35.26
59435;BME280;45241;49.768;8.636;2023-08-21T15:02:01;100552.16;;;44.01;33.24
59435;BME280;45241;49.768;8.636;2023-08-21T15:04:26;100551.94;;;43.35;33.36
59435;BME280;45241;49.768;8.636;2023-08-21T15:06:52;100549.28;;;44.12;32.95
59435;BME280;45241;49.768;8.636;2023-08-21T15:09:17;100550.50;;;45.59;32.32
59435;BME280;45241;49.768;8.636;2023-08-21T15:11:42;100547.69;;;45.18;31.99
59435;BME280;45241;49.768;8.636;2023-08-21T15:14:11;100546.53;;;45.87;34.67
59435;BME280;45241;49.768;8.636;2023-08-21T15:16:37;100533.47;;;45.66;33.06
59435;BME280;45241;49.768;8.636;2023-08-21T15:19:03;100527.03;;;44.17;33.72
59435;BME280;45241;49.768;8.636;2023-08-21T15:21:28;100530.75;;;46.71;33.89
59435;BME280;45241;49.768;8.636;2023-08-21T15:23:53;100522.38;;;45.04;33.72
59435;BME280;45241;49.768;8.636;2023-08-21T15:26:19;100523.25;;;46.84;33.26
59435;BME280;45241;49.768;8.636;2023-08-21T15:28:44;100516.66;;;46.40;32.39
59435;BME280;45241;49.768;8.636;2023-08-21T15:31:10;100508.22;;;45.79;31.63
59435;BME280;45241;49.768;8.636;2023-08-21T15:33:35;100524.47;;;46.59;34.28
59435;BME280;45241;49.768;8.636;2023-08-21T15:36:00;100515.47;;;47.11;32.00
59435;BME280;45241;49.768;8.636;2023-08-21T15:38:25;100507.88;;;47.48;33.04
59435;BME280;45241;49.768;8.636;2023-08-21T15:40:51;100514.84;;;47.00;31.76
59435;BME280;45241;49.768;8.636;2023-08-21T15:43:16;100514.25;;;48.60;33.31
59435;BME280;45241;49.768;8.636;2023-08-21T15:45:41;100497.81;;;48.84;31.65
59435;BME280;45241;49.768;8.636;2023-08-21T15:48:07;100506.00;;;46.21;31.97
59435;BME280;45241;49.768;8.636;2023-08-21T15:50:32;100508.50;;;47.16;33.74
59435;BME280;45241;49.768;8.636;2023-08-21T15:52:57;100492.31;;;44.20;32.45
59435;BME280;45241;49.768;8.636;2023-08-21T15:55:22;100498.75;;;46.20;34.50
59435;BME280;45241;49.768;8.636;2023-08-21T15:57:48;100488.88;;;45.36;32.77
59435;BME280;45241;49.768;8.636;2023-08-21T16:00:13;100491.59;;;45.09;36.31
59435;BME280;45241;49.768;8.636;2023-08-21T16:02:38;100482.03;;;44.51;34.33
59435;BME280;45241;49.768;8.636;2023-08-21T16:05:06;100471.59;;;44.89;34.00
59435;BME280;45241;49.768;8.636;2023-08-21T16:07:32;100479.44;;;45.12;36.03
59435;BME280;45241;49.768;8.636;2023-08-21T16:09:57;100470.81;;;44.37;33.21
59435;BME280;45241;49.768;8.636;2023-08-21T16:12:22;100476.75;;;43.91;34.84
59435;BME280;45241;49.768;8.636;2023-08-21T16:15:56;100471.44;;;45.41;31.58
59435;BME280;45241;49.768;8.636;2023-08-21T16:18:22;100465.91;;;44.93;32.31
59435;BME280;45241;49.768;8.636;2023-08-21T16:20:47;100466.03;;;45.54;34.08
59435;BME280;45241;49.768;8.636;2023-08-21T16:23:12;100462.81;;;45.18;35.19
59435;BME280;45241;49.768;8.636;2023-08-21T16:25:38;100460.50;;;45.43;32.79
59435;BME280;45241;49.768;8.636;2023-08-21T18:15:27;100434.47;;;32.54;67.64
59435;BME280;45241;49.768;8.636;2023-08-21T18:17:56;100439.91;;;32.33;67.50
59435;BME280;45241;49.768;8.636;2023-08-21T18:20:21;100435.09;;;31.95;68.25
59435;BME280;45241;49.768;8.636;2023-08-21T18:22:46;100428.13;;;31.80;70.35
59435;BME280;45241;49.768;8.636;2023-08-21T18:25:12;100436.94;;;31.74;69.98
59435;BME280;45241;49.768;8.636;2023-08-21T18:27:37;100437.41;;;31.58;72.51
59435;BME280;45241;49.768;8.636;2023-08-21T18:30:03;100442.63;;;31.60;74.33
59435;BME280;45241;49.768;8.636;2023-08-21T18:32:29;100441.16;;;31.37;72.44
59435;BME280;45241;49.768;8.636;2023-08-21T18:34:54;100453.53;;;31.30;73.22
59435;BME280;45241;49.768;8.636;2023-08-21T18:37:19;100450.59;;;31.18;75.66
59435;BME280;45241;49.768;8.636;2023-08-21T18:39:45;100453.78;;;30.94;74.96
59435;BME280;45241;49.768;8.636;2023-08-21T18:42:10;100457.00;;;30.79;74.85
59435;BME280;45241;49.768;8.636;2023-08-21T20:00:16;100520.88;;;28.47;85.02
59435;BME280;45241;49.768;8.636;2023-08-21T20:02:41;100516.28;;;28.56;86.92
59435;BME280;45241;49.768;8.636;2023-08-21T20:05:07;100525.47;;;28.52;83.32
59435;BME280;45241;49.768;8.636;2023-08-21T20:07:33;100528.09;;;28.43;84.50
59435;BME280;45241;49.768;8.636;2023-08-21T20:09:58;100523.31;;;28.35;84.25
59435;BME280;45241;49.768;8.636;2023-08-21T20:12:24;100525.56;;;28.33;85.77
59435;BME280;45241;49.768;8.636;2023-08-21T20:14:49;100523.69;;;28.28;86.50
59435;BME280;45241;49.768;8.636;2023-08-21T20:17:16;100526.91;;;28.17;86.92
59435;BME280;45241;49.768;8.636;2023-08-21T20:19:42;100537.50;;;28.09;86.49
59435;BME280;45241;49.768;8.636;2023-08-21T20:22:07;100537.50;;;28.09;87.19
59435;BME280;45241;49.768;8.636;2023-08-21T20:24:32;100534.22;;;28.07;89.19
59435;BME280;45241;49.768;8.636;2023-08-21T20:26:58;100537.03;;;28.02;89.64
59435;BME280;45241;49.768;8.636;2023-08-21T20:29:23;100530.53;;;27.79;88.91
59435;BME280;45241;49.768;8.636;2023-08-21T20:31:48;100532.97;;;27.81;89.89
59435;BME280;45241;49.768;8.636;2023-08-21T20:34:15;100540.03;;;27.87;88.75
59435;BME280;45241;49.768;8.636;2023-08-21T20:36:40;100536.25;;;27.83;91.05
59435;BME280;45241;49.768;8.636;2023-08-21T20:39:06;100528.66;;;27.75;91.76
59435;BME280;45241;49.768;8.636;2023-08-21T20:41:31;100538.03;;;27.74;92.32
59435;BME280;45241;49.768;8.636;2023-08-21T20:43:57;100533.72;;;27.68;91.58
59435;BME280;45241;49.768;8.636;2023-08-21T20:46:22;100532.00;;;27.72;89.92
59435;BME280;45241;49.768;8.636;2023-08-21T20:48:48;100537.22;;;27.54;92.35
59435;BME280;45241;49.768;8.636;2023-08-21T20:51:13;100535.28;;;27.55;91.96
59435;BME280;45241;49.768;8.636;2023-08-21T20:53:39;100529.47;;;27.57;92.37
59435;BME280;45241;49.768;8.636;2023-08-21T20:56:04;100536.22;;;27.45;92.37
59435;BME280;45241;49.768;8.636;2023-08-21T20:58:31;100530.34;;;27.52;93.50
59435;BME280;45241;49.768;8.636;2023-08-21T21:00:56;100535.69;;;27.43;93.65
59435;BME280;45241;49.768;8.636;2023-08-21T21:03:21;100535.00;;;27.33;94.69
59435;BME280;45241;49.768;8.636;2023-08-21T21:05:47;100529.84;;;27.26;95.37
59435;BME280;45241;49.768;8.636;2023-08-21T21:08:12;100530.09;;;27.30;95.01
59435;BME280;45241;49.768;8.636;2023-08-21T21:10:38;100530.16;;;27.24;95.36
59435;BME280;45241;49.768;8.636;2023-08-21T21:13:03;100527.38;;;27.24;95.29
59435;BME280;45241;49.768;8.636;2023-08-21T21:15:29;100524.19;;;27.17;95.68
59435;BME280;45241;49.768;8.636;2023-08-21T21:17:54;100527.09;;;27.26;95.14
59435;BME280;45241;49.768;8.636;2023-08-21T21:20:21;100521.88;;;27.24;94.52
59435;BME280;45241;49.768;8.636;2023-08-21T21:22:46;100524.34;;;27.26;94.43
59435;BME280;45241;49.768;8.636;2023-08-21T21:25:12;100528.00;;;27.21;94.27
59435;BME280;45241;49.768;8.636;2023-08-21T21:27:37;100530.00;;;27.16;94.66
59435;BME280;45241;49.768;8.636;2023-08-21T21:30:03;100529.53;;;27.09;96.54
59435;BME280;45241;49.768;8.636;2023-08-21T21:32:28;100524.84;;;27.09;96.66
59435;BME280;45241;49.768;8.636;2023-08-21T21:34:53;100524.09;;;27.04;97.62
59435;BME280;45241;49.768;8.636;2023-08-21T21:37:19;100515.84;;;27.04;97.08
59435;BME280;45241;49.768;8.636;2023-08-21T21:39:44;100520.44;;;27.08;97.49
59435;BME280;45241;49.768;8.636;2023-08-21T21:59:24;100512.41;;;26.64;96.76
59435;BME280;45241;49.768;8.636;2023-08-21T22:01:49;100512.13;;;26.36;97.91
59435;BME280;45241;49.768;8.636;2023-08-21T22:04:14;100513.81;;;25.93;100.00
59435;BME280;45241;49.768;8.636;2023-08-21T22:06:40;100509.38;;;26.36;100.00
59435;BME280;45241;49.768;8.636;2023-08-21T22:09:07;100507.34;;;26.18;100.00
59435;BME280;45241;49.768;8.636;2023-08-21T22:11:32;100502.66;;;26.48;99.61
59435;BME280;45241;49.768;8.636;2023-08-21T22:13:57;100501.22;;;26.55;99.52
59435;BME280;45241;49.768;8.636;2023-08-21T22:16:23;100511.47;;;26.50;100.00
59435;BME280;45241;49.768;8.636;2023-08-21T22:18:48;100500.69;;;26.53;100.00
59435;BME280;45241;49.768;8.636;2023-08-21T22:21:14;100508.31;;;26.32;100.00
59435;BME280;45241;49.768;8.636;2023-08-21T22:23:39;100499.44;;;26.41;100.00
59435;BME280;45241;49.768;8.636;2023-08-21T22:26:04;100513.28;;;26.30;100.00
59435;BME280;45241;49.768;8.636;2023-08-21T22:28:30;100508.00;;;26.34;100.00
59435;BME280;45241;49.768;8.636;2023-08-21T22:30:55;100511.44;;;26.21;100.00
59435;BME280;45241;49.768;8.636;2023-08-21T22:33:20;100512.69;;;26.33;100.00
59435;BME280;45241;49.768;8.636;2023-08-21T22:35:46;100503.44;;;26.24;100.00
59435;BME280;45241;49.768;8.636;2023-08-21T22:38:12;100514.25;;;26.16;100.00
59435;BME280;45241;49.768;8.636;2023-08-21T22:40:37;100507.03;;;26.25;100.00
59435;BME280;45241;49.768;8.636;2023-08-21T23:27:35;100495.00;;;25.76;100.00
59435;BME280;45241;49.768;8.636;2023-08-21T23:30:00;100501.19;;;25.53;100.00
59435;BME280;45241;49.768;8.636;2023-08-21T23:32:25;100505.28;;;25.61;100.00
59435;BME280;45241;49.768;8.636;2023-08-21T23:34:51;100500.63;;;25.61;100.00
59435;BME280;45241;49.768;8.636;2023-08-21T23:37:16;100498.16;;;25.60;100.00
59435;BME280;45241;49.768;8.636;2023-08-21T23:39:41;100490.75;;;25.60;100.00
59435;BME280;45241;49.768;8.636;2023-08-21T23:42:07;100493.84;;;25.48;100.00
59435;BME280;45241;49.768;8.636;2023-08-21T23:44:32;100489.13;;;25.54;100.00
59435;BME280;45241;49.768;8.636;2023-08-21T23:46:57;100489.69;;;25.51;100.00
59435;BME280;45241;49.768;8.636;2023-08-21T23:49:23;100495.75;;;25.48;100.00
59435;BME280;45241;49.768;8.636;2023-08-21T23:51:48;100493.25;;;25.51;100.00
59435;BME280;45241;49.768;8.636;2023-08-21T23:54:13;100482.63;;;25.40;100.00
59435;BME280;45241;49.768;8.636;2023-08-21T23:56:38;100484.50;;;25.44;100.00
59435;BME280;45241;49.768;8.636;2023-08-21T23:59:04;100487.00;;;25.46;100.00
